sensor_id;sensor_type;location;lat;lon;timestamp;P1;durP1;ratioP1;P2;durP2;ratioP2
14348;SDS011;7258;50.376;8.742;2023-05-23T00:00:00;25.38;;;22.73;;
14348;SDS011;7258;50.376;8.742;2023-05-23T00:02:06;24.65;;;22.30;;
14348;SDS011;7258;50.376;8.742;2023-05-23T00:04:09;24.15;;;21.85;;
14348;SDS011;7258;50.376;8.742;2023-05-23T00:06:19;25.27;;;22.70;;
14348;SDS011;7258;50.376;8.742;2023-05-23T00:08:24;26.30;;;23.73;;
14348;SDS011;7258;50.376;8.742;2023-05-23T00:10:27;27.45;;;24.65;;
14348;SDS011;7258;50.376;8.742;2023-05-23T00:12:30;26.85;;;24.42;;
14348;SDS011;7258;50.376;8.742;2023-05-23T00:14:34;26.58;;;23.98;;
14348;SDS011;7258;50.376;8.742;2023-05-23T00:16:38;26.90;;;24.35;;
14348;SDS011;7258;50.376;8.742;2023-05-23T00:18:43;27.02;;;24.50;;
14348;SDS011;7258;50.376;8.742;2023-05-23T00:20:46;25.75;;;23.55;;
14348;SDS011;7258;50.376;8.742;2023-05-23T00:22:51;27.73;;;25.00;;
14348;SDS011;7258;50.376;8.742;2023-05-23T00:24:54;26.30;;;23.48;;
14348;SDS011;7258;50.376;8.742;2023-05-23T00:26:59;26.63;;;23.95;;
14348;SDS011;7258;50.376;8.742;2023-05-23T00:29:02;27.05;;;24.48;;
14348;SDS011;7258;50.376;8.742;2023-05-23T00:31:05;27.63;;;24.88;;
14348;SDS011;7258;50.376;8.742;2023-05-23T00:33:08;26.95;;;24.55;;
14348;SDS011;7258;50.376;8.742;2023-05-23T00:35:14;26.73;;;23.95;;
14348;SDS011;7258;50.376;8.742;2023-05-23T00:37:18;27.45;;;24.60;;
14348;SDS011;7258;50.376;8.742;2023-05-23T00:39:24;28.48;;;25.63;;
14348;SDS011;7258;50.376;8.742;2023-05-23T00:41:45;27.98;;;25.00;;
14348;SDS011;7258;50.376;8.742;2023-05-23T00:43:53;27.52;;;25.02;;
14348;SDS011;7258;50.376;8.742;2023-05-23T00:45:59;28.08;;;25.48;;
14348;SDS011;7258;50.376;8.742;2023-05-23T00:48:02;28.90;;;25.88;;
14348;SDS011;7258;50.376;8.742;2023-05-23T00:50:08;28.83;;;26.15;;
14348;SDS011;7258;50.376;8.742;2023-05-23T00:52:15;29.05;;;26.33;;
14348;SDS011;7258;50.376;8.742;2023-05-23T00:54:24;29.08;;;26.08;;
14348;SDS011;7258;50.376;8.742;2023-05-23T00:56:31;28.67;;;25.90;;
14348;SDS011;7258;50.376;8.742;2023-05-23T00:58:34;28.98;;;26.27;;
14348;SDS011;7258;50.376;8.742;2023-05-23T01:00:37;31.05;;;27.77;;
14348;SDS011;7258;50.376;8.742;2023-05-23T01:02:42;31.15;;;28.13;;
14348;SDS011;7258;50.376;8.742;2023-05-23T01:04:46;29.42;;;26.75;;
14348;SDS011;7258;50.376;8.742;2023-05-23T01:06:54;30.25;;;27.52;;
14348;SDS011;7258;50.376;8.742;2023-05-23T01:08:58;30.90;;;27.83;;
14348;SDS011;7258;50.376;8.742;2023-05-23T01:11:05;29.70;;;26.88;;
14348;SDS011;7258;50.376;8.742;2023-05-23T01:13:19;27.98;;;25.55;;
14348;SDS011;7258;50.376;8.742;2023-05-23T01:15:28;29.23;;;26.52;;
14348;SDS011;7258;50.376;8.742;2023-05-23T01:17:38;30.45;;;27.50;;
14348;SDS011;7258;50.376;8.742;2023-05-23T01:19:51;29.55;;;26.65;;
14348;SDS011;7258;50.376;8.742;2023-05-23T01:22:02;29.52;;;26.83;;
14348;SDS011;7258;50.376;8.742;2023-05-23T01:24:27;29.00;;;26.13;;
14348;SDS011;7258;50.376;8.742;2023-05-23T01:26:44;30.05;;;27.13;;
14348;SDS011;7258;50.376;8.742;2023-05-23T01:29:10;31.67;;;28.65;;
14348;SDS011;7258;50.376;8.742;2023-05-23T01:31:18;31.65;;;28.60;;
14348;SDS011;7258;50.376;8.742;2023-05-23T01:33:25;32.03;;;28.67;;
14348;SDS011;7258;50.376;8.742;2023-05-23T01:35:30;32.85;;;29.58;;
14348;SDS011;7258;50.376;8.742;2023-05-23T01:37:34;33.63;;;30.35;;
14348;SDS011;7258;50.376;8.742;2023-05-23T01:39:37;33.35;;;29.90;;
14348;SDS011;7258;50.376;8.742;2023-05-23T01:41:41;32.30;;;29.27;;
14348;SDS011;7258;50.376;8.742;2023-05-23T01:43:44;34.63;;;31.25;;
14348;SDS011;7258;50.376;8.742;2023-05-23T01:45:50;35.45;;;31.88;;
14348;SDS011;7258;50.376;8.742;2023-05-23T01:47:55;36.65;;;33.15;;
14348;SDS011;7258;50.376;8.742;2023-05-23T01:49:58;35.83;;;32.45;;
14348;SDS011;7258;50.376;8.742;2023-05-23T01:52:02;35.45;;;32.13;;
14348;SDS011;7258;50.376;8.742;2023-05-23T01:54:10;36.88;;;30.55;;
14348;SDS011;7258;50.376;8.742;2023-05-23T01:56:14;33.90;;;30.50;;
14348;SDS011;7258;50.376;8.742;2023-05-23T01:58:18;34.35;;;28.05;;
14348;SDS011;7258;50.376;8.742;2023-05-23T02:00:21;30.60;;;27.52;;
14348;SDS011;7258;50.376;8.742;2023-05-23T02:02:26;28.00;;;25.52;;
14348;SDS011;7258;50.376;8.742;2023-05-23T02:04:30;28.52;;;25.55;;
14348;SDS011;7258;50.376;8.742;2023-05-23T02:06:33;27.08;;;24.55;;
14348;SDS011;7258;50.376;8.742;2023-05-23T02:08:39;26.70;;;24.08;;
14348;SDS011;7258;50.376;8.742;2023-05-23T02:10:42;25.33;;;22.98;;
14348;SDS011;7258;50.376;8.742;2023-05-23T02:12:45;25.92;;;23.63;;
14348;SDS011;7258;50.376;8.742;2023-05-23T02:14:48;24.63;;;22.27;;
14348;SDS011;7258;50.376;8.742;2023-05-23T02:16:52;24.08;;;21.88;;
14348;SDS011;7258;50.376;8.742;2023-05-23T02:18:57;22.98;;;20.92;;
14348;SDS011;7258;50.376;8.742;2023-05-23T02:21:02;22.42;;;20.40;;
14348;SDS011;7258;50.376;8.742;2023-05-23T02:23:05;21.85;;;19.85;;
14348;SDS011;7258;50.376;8.742;2023-05-23T02:25:08;21.35;;;19.48;;
14348;SDS011;7258;50.376;8.742;2023-05-23T02:27:13;21.95;;;19.55;;
14348;SDS011;7258;50.376;8.742;2023-05-23T02:29:16;21.70;;;19.63;;
14348;SDS011;7258;50.376;8.742;2023-05-23T02:31:19;20.95;;;19.05;;
14348;SDS011;7258;50.376;8.742;2023-05-23T02:33:23;21.65;;;19.77;;
14348;SDS011;7258;50.376;8.742;2023-05-23T02:35:27;22.02;;;19.85;;
14348;SDS011;7258;50.376;8.742;2023-05-23T02:37:30;22.45;;;20.17;;
14348;SDS011;7258;50.376;8.742;2023-05-23T02:39:34;22.30;;;20.02;;
14348;SDS011;7258;50.376;8.742;2023-05-23T02:41:38;24.50;;;21.98;;
14348;SDS011;7258;50.376;8.742;2023-05-23T02:43:41;22.20;;;20.15;;
14348;SDS011;7258;50.376;8.742;2023-05-23T02:45:47;24.77;;;22.45;;
14348;SDS011;7258;50.376;8.742;2023-05-23T02:47:50;25.25;;;22.67;;
14348;SDS011;7258;50.376;8.742;2023-05-23T02:49:53;25.58;;;23.02;;
14348;SDS011;7258;50.376;8.742;2023-05-23T02:51:57;24.33;;;22.05;;
14348;SDS011;7258;50.376;8.742;2023-05-23T02:54:00;24.27;;;21.90;;
14348;SDS011;7258;50.376;8.742;2023-05-23T02:56:03;24.00;;;21.70;;
14348;SDS011;7258;50.376;8.742;2023-05-23T02:58:08;24.10;;;21.77;;
14348;SDS011;7258;50.376;8.742;2023-05-23T03:00:12;22.45;;;20.30;;
14348;SDS011;7258;50.376;8.742;2023-05-23T03:02:16;25.40;;;22.90;;
14348;SDS011;7258;50.376;8.742;2023-05-23T03:04:19;23.52;;;20.38;;
14348;SDS011;7258;50.376;8.742;2023-05-23T03:06:22;23.63;;;21.33;;
14348;SDS011;7258;50.376;8.742;2023-05-23T03:08:27;22.88;;;20.63;;
14348;SDS011;7258;50.376;8.742;2023-05-23T03:10:30;22.17;;;20.30;;
14348;SDS011;7258;50.376;8.742;2023-05-23T03:12:33;22.58;;;20.50;;
14348;SDS011;7258;50.376;8.742;2023-05-23T03:14:36;25.38;;;20.42;;
14348;SDS011;7258;50.376;8.742;2023-05-23T03:16:39;22.30;;;20.20;;
14348;SDS011;7258;50.376;8.742;2023-05-23T03:18:42;23.33;;;20.95;;
14348;SDS011;7258;50.376;8.742;2023-05-23T03:20:45;21.77;;;19.67;;
14348;SDS011;7258;50.376;8.742;2023-05-23T03:22:48;22.35;;;20.08;;
14348;SDS011;7258;50.376;8.742;2023-05-23T03:24:52;22.92;;;20.73;;
14348;SDS011;7258;50.376;8.742;2023-05-23T03:26:55;22.50;;;20.40;;
14348;SDS011;7258;50.376;8.742;2023-05-23T03:28:58;22.85;;;20.10;;
14348;SDS011;7258;50.376;8.742;2023-05-23T03:31:01;21.45;;;19.50;;
14348;SDS011;7258;50.376;8.742;2023-05-23T03:33:04;22.05;;;19.92;;
14348;SDS011;7258;50.376;8.742;2023-05-23T03:35:08;21.35;;;19.33;;
14348;SDS011;7258;50.376;8.742;2023-05-23T03:37:11;22.48;;;20.25;;
14348;SDS011;7258;50.376;8.742;2023-05-23T03:39:17;22.13;;;20.02;;
14348;SDS011;7258;50.376;8.742;2023-05-23T03:41:21;21.00;;;19.20;;
14348;SDS011;7258;50.376;8.742;2023-05-23T03:43:24;22.80;;;20.73;;
14348;SDS011;7258;50.376;8.742;2023-05-23T03:45:27;21.58;;;19.48;;
14348;SDS011;7258;50.376;8.742;2023-05-23T03:47:30;21.60;;;19.52;;
14348;SDS011;7258;50.376;8.742;2023-05-23T03:49:33;21.75;;;19.73;;
14348;SDS011;7258;50.376;8.742;2023-05-23T03:51:36;20.38;;;18.38;;
14348;SDS011;7258;50.376;8.742;2023-05-23T03:53:39;19.27;;;17.20;;
14348;SDS011;7258;50.376;8.742;2023-05-23T03:55:42;18.33;;;16.70;;
14348;SDS011;7258;50.376;8.742;2023-05-23T03:57:47;18.50;;;16.75;;
14348;SDS011;7258;50.376;8.742;2023-05-23T03:59:50;17.63;;;15.95;;
14348;SDS011;7258;50.376;8.742;2023-05-23T04:01:53;17.02;;;15.52;;
14348;SDS011;7258;50.376;8.742;2023-05-23T04:03:58;17.17;;;15.25;;
14348;SDS011;7258;50.376;8.742;2023-05-23T04:06:02;15.68;;;14.38;;
14348;SDS011;7258;50.376;8.742;2023-05-23T04:08:05;16.20;;;14.80;;
14348;SDS011;7258;50.376;8.742;2023-05-23T04:10:08;16.48;;;14.88;;
14348;SDS011;7258;50.376;8.742;2023-05-23T04:12:11;17.00;;;14.68;;
14348;SDS011;7258;50.376;8.742;2023-05-23T04:14:16;16.63;;;14.63;;
14348;SDS011;7258;50.376;8.742;2023-05-23T04:16:20;16.33;;;13.48;;
14348;SDS011;7258;50.376;8.742;2023-05-23T04:18:24;15.43;;;13.93;;
14348;SDS011;7258;50.376;8.742;2023-05-23T04:20:27;14.88;;;13.60;;
14348;SDS011;7258;50.376;8.742;2023-05-23T04:22:31;14.43;;;12.77;;
14348;SDS011;7258;50.376;8.742;2023-05-23T04:24:34;14.50;;;13.02;;
14348;SDS011;7258;50.376;8.742;2023-05-23T04:26:37;14.23;;;13.00;;
14348;SDS011;7258;50.376;8.742;2023-05-23T04:28:40;14.25;;;13.02;;
14348;SDS011;7258;50.376;8.742;2023-05-23T04:30:50;14.65;;;13.27;;
14348;SDS011;7258;50.376;8.742;2023-05-23T04:32:53;15.25;;;13.40;;
14348;SDS011;7258;50.376;8.742;2023-05-23T04:34:58;15.23;;;13.80;;
14348;SDS011;7258;50.376;8.742;2023-05-23T04:37:04;15.73;;;14.32;;
14348;SDS011;7258;50.376;8.742;2023-05-23T04:39:07;15.93;;;14.43;;
14348;SDS011;7258;50.376;8.742;2023-05-23T04:41:10;17.50;;;14.70;;
14348;SDS011;7258;50.376;8.742;2023-05-23T04:43:17;16.98;;;15.48;;
14348;SDS011;7258;50.376;8.742;2023-05-23T04:45:22;15.43;;;14.13;;
14348;SDS011;7258;50.376;8.742;2023-05-23T04:47:28;15.80;;;14.40;;
14348;SDS011;7258;50.376;8.742;2023-05-23T04:49:37;15.77;;;14.40;;
14348;SDS011;7258;50.376;8.742;2023-05-23T04:51:42;15.55;;;14.10;;
14348;SDS011;7258;50.376;8.742;2023-05-23T04:53:49;18.27;;;16.13;;
14348;SDS011;7258;50.376;8.742;2023-05-23T04:55:53;18.98;;;17.05;;
14348;SDS011;7258;50.376;8.742;2023-05-23T04:57:56;18.35;;;16.52;;
14348;SDS011;7258;50.376;8.742;2023-05-23T04:59:59;21.38;;;19.20;;
14348;SDS011;7258;50.376;8.742;2023-05-23T05:02:02;19.90;;;18.00;;
14348;SDS011;7258;50.376;8.742;2023-05-23T05:04:12;21.15;;;19.08;;
14348;SDS011;7258;50.376;8.742;2023-05-23T05:06:21;20.17;;;18.00;;
14348;SDS011;7258;50.376;8.742;2023-05-23T05:08:24;18.65;;;17.02;;
14348;SDS011;7258;50.376;8.742;2023-05-23T05:10:27;18.00;;;16.23;;
14348;SDS011;7258;50.376;8.742;2023-05-23T05:12:30;19.45;;;17.67;;
14348;SDS011;7258;50.376;8.742;2023-05-23T05:14:33;19.92;;;18.02;;
14348;SDS011;7258;50.376;8.742;2023-05-23T05:16:36;22.35;;;20.13;;
14348;SDS011;7258;50.376;8.742;2023-05-23T05:18:39;20.88;;;18.95;;
14348;SDS011;7258;50.376;8.742;2023-05-23T05:20:44;21.63;;;19.17;;
14348;SDS011;7258;50.376;8.742;2023-05-23T05:22:54;15.60;;;14.02;;
14348;SDS011;7258;50.376;8.742;2023-05-23T05:25:04;14.95;;;13.63;;
14348;SDS011;7258;50.376;8.742;2023-05-23T05:27:08;11.32;;;10.32;;
14348;SDS011;7258;50.376;8.742;2023-05-23T05:29:12;11.45;;;10.35;;
14348;SDS011;7258;50.376;8.742;2023-05-23T05:31:15;10.63;;;8.80;;
14348;SDS011;7258;50.376;8.742;2023-05-23T05:33:21;10.10;;;9.15;;
14348;SDS011;7258;50.376;8.742;2023-05-23T05:35:25;10.30;;;9.48;;
14348;SDS011;7258;50.376;8.742;2023-05-23T05:37:29;7.80;;;7.00;;
14348;SDS011;7258;50.376;8.742;2023-05-23T05:39:32;7.20;;;6.50;;
14348;SDS011;7258;50.376;8.742;2023-05-23T05:41:35;6.80;;;6.18;;
14348;SDS011;7258;50.376;8.742;2023-05-23T05:43:39;5.63;;;5.22;;
14348;SDS011;7258;50.376;8.742;2023-05-23T05:45:42;6.47;;;5.88;;
14348;SDS011;7258;50.376;8.742;2023-05-23T05:47:45;5.97;;;4.85;;
14348;SDS011;7258;50.376;8.742;2023-05-23T05:49:48;4.05;;;3.67;;
14348;SDS011;7258;50.376;8.742;2023-05-23T05:51:51;4.20;;;3.85;;
14348;SDS011;7258;50.376;8.742;2023-05-23T05:53:56;5.10;;;4.55;;
14348;SDS011;7258;50.376;8.742;2023-05-23T05:55:59;4.40;;;4.10;;
14348;SDS011;7258;50.376;8.742;2023-05-23T05:58:02;3.92;;;3.63;;
14348;SDS011;7258;50.376;8.742;2023-05-23T06:00:06;4.22;;;3.83;;
14348;SDS011;7258;50.376;8.742;2023-05-23T06:02:15;3.72;;;3.53;;
14348;SDS011;7258;50.376;8.742;2023-05-23T06:04:18;4.15;;;3.72;;
14348;SDS011;7258;50.376;8.742;2023-05-23T06:06:21;4.35;;;3.95;;
14348;SDS011;7258;50.376;8.742;2023-05-23T06:08:24;4.38;;;3.97;;
14348;SDS011;7258;50.376;8.742;2023-05-23T06:10:29;4.07;;;3.78;;
14348;SDS011;7258;50.376;8.742;2023-05-23T06:12:32;5.10;;;3.97;;
14348;SDS011;7258;50.376;8.742;2023-05-23T06:14:35;4.15;;;3.85;;
14348;SDS011;7258;50.376;8.742;2023-05-23T06:16:39;4.78;;;3.90;;
14348;SDS011;7258;50.376;8.742;2023-05-23T06:18:42;4.68;;;4.22;;
14348;SDS011;7258;50.376;8.742;2023-05-23T06:20:45;4.18;;;3.88;;
14348;SDS011;7258;50.376;8.742;2023-05-23T06:22:48;4.65;;;4.05;;
14348;SDS011;7258;50.376;8.742;2023-05-23T06:24:51;5.30;;;3.95;;
14348;SDS011;7258;50.376;8.742;2023-05-23T06:26:55;4.07;;;3.67;;
14348;SDS011;7258;50.376;8.742;2023-05-23T06:28:58;4.70;;;3.30;;
14348;SDS011;7258;50.376;8.742;2023-05-23T06:31:02;4.22;;;3.67;;
14348;SDS011;7258;50.376;8.742;2023-05-23T06:33:05;4.10;;;3.80;;
14348;SDS011;7258;50.376;8.742;2023-05-23T06:35:08;5.25;;;3.80;;
14348;SDS011;7258;50.376;8.742;2023-05-23T06:37:11;3.75;;;3.45;;
14348;SDS011;7258;50.376;8.742;2023-05-23T06:39:14;3.53;;;3.30;;
14348;SDS011;7258;50.376;8.742;2023-05-23T06:41:17;5.05;;;3.60;;
14348;SDS011;7258;50.376;8.742;2023-05-23T06:43:22;3.33;;;3.10;;
14348;SDS011;7258;50.376;8.742;2023-05-23T06:45:25;3.92;;;3.63;;
14348;SDS011;7258;50.376;8.742;2023-05-23T06:47:28;4.93;;;3.65;;
14348;SDS011;7258;50.376;8.742;2023-05-23T06:49:31;3.67;;;3.33;;
14348;SDS011;7258;50.376;8.742;2023-05-23T06:51:34;3.83;;;3.53;;
14348;SDS011;7258;50.376;8.742;2023-05-23T06:53:37;3.67;;;3.47;;
14348;SDS011;7258;50.376;8.742;2023-05-23T06:55:40;3.80;;;3.50;;
14348;SDS011;7258;50.376;8.742;2023-05-23T06:57:43;4.10;;;3.70;;
14348;SDS011;7258;50.376;8.742;2023-05-23T06:59:48;3.90;;;3.50;;
14348;SDS011;7258;50.376;8.742;2023-05-23T07:01:51;3.80;;;3.50;;
14348;SDS011;7258;50.376;8.742;2023-05-23T07:03:54;4.25;;;3.63;;
14348;SDS011;7258;50.376;8.742;2023-05-23T07:05:57;5.90;;;3.80;;
14348;SDS011;7258;50.376;8.742;2023-05-23T07:08:01;4.72;;;3.53;;
14348;SDS011;7258;50.376;8.742;2023-05-23T07:10:04;4.55;;;3.90;;
14348;SDS011;7258;50.376;8.742;2023-05-23T07:12:08;4.97;;;4.45;;
14348;SDS011;7258;50.376;8.742;2023-05-23T07:14:11;5.70;;;4.75;;
14348;SDS011;7258;50.376;8.742;2023-05-23T07:16:15;5.47;;;4.93;;
14348;SDS011;7258;50.376;8.742;2023-05-23T07:18:18;7.85;;;5.65;;
14348;SDS011;7258;50.376;8.742;2023-05-23T07:20:24;7.07;;;5.45;;
14348;SDS011;7258;50.376;8.742;2023-05-23T07:22:29;6.13;;;5.40;;
14348;SDS011;7258;50.376;8.742;2023-05-23T07:24:35;6.43;;;5.05;;
14348;SDS011;7258;50.376;8.742;2023-05-23T07:26:38;6.93;;;6.13;;
14348;SDS011;7258;50.376;8.742;2023-05-23T07:28:41;6.63;;;6.00;;
14348;SDS011;7258;50.376;8.742;2023-05-23T07:30:44;6.35;;;5.85;;
14348;SDS011;7258;50.376;8.742;2023-05-23T07:32:49;6.97;;;6.22;;
14348;SDS011;7258;50.376;8.742;2023-05-23T07:34:52;6.95;;;5.78;;
14348;SDS011;7258;50.376;8.742;2023-05-23T07:36:55;6.60;;;6.00;;
14348;SDS011;7258;50.376;8.742;2023-05-23T07:38:58;6.78;;;6.18;;
14348;SDS011;7258;50.376;8.742;2023-05-23T07:41:02;7.00;;;6.47;;
14348;SDS011;7258;50.376;8.742;2023-05-23T07:43:12;7.20;;;6.60;;
14348;SDS011;7258;50.376;8.742;2023-05-23T07:45:15;6.95;;;6.40;;
14348;SDS011;7258;50.376;8.742;2023-05-23T07:47:18;7.32;;;6.63;;
14348;SDS011;7258;50.376;8.742;2023-05-23T07:49:23;7.05;;;6.55;;
14348;SDS011;7258;50.376;8.742;2023-05-23T07:51:26;7.03;;;6.43;;
14348;SDS011;7258;50.376;8.742;2023-05-23T07:53:29;6.97;;;6.47;;
14348;SDS011;7258;50.376;8.742;2023-05-23T07:55:32;6.40;;;5.85;;
14348;SDS011;7258;50.376;8.742;2023-05-23T07:57:35;6.60;;;6.10;;
14348;SDS011;7258;50.376;8.742;2023-05-23T07:59:38;6.85;;;6.35;;
14348;SDS011;7258;50.376;8.742;2023-05-23T08:01:41;7.05;;;6.55;;
14348;SDS011;7258;50.376;8.742;2023-05-23T08:03:45;7.15;;;6.18;;
14348;SDS011;7258;50.376;8.742;2023-05-23T08:05:49;6.10;;;5.60;;
14348;SDS011;7258;50.376;8.742;2023-05-23T08:07:52;6.28;;;5.68;;
14348;SDS011;7258;50.376;8.742;2023-05-23T08:09:55;7.07;;;5.65;;
14348;SDS011;7258;50.376;8.742;2023-05-23T08:11:58;7.10;;;6.50;;
14348;SDS011;7258;50.376;8.742;2023-05-23T08:14:01;6.28;;;5.75;;
14348;SDS011;7258;50.376;8.742;2023-05-23T08:16:04;6.25;;;5.85;;
14348;SDS011;7258;50.376;8.742;2023-05-23T08:18:07;6.78;;;6.18;;
14348;SDS011;7258;50.376;8.742;2023-05-23T08:20:11;5.80;;;5.30;;
14348;SDS011;7258;50.376;8.742;2023-05-23T08:22:16;5.88;;;5.38;;
14348;SDS011;7258;50.376;8.742;2023-05-23T08:24:19;5.63;;;5.15;;
14348;SDS011;7258;50.376;8.742;2023-05-23T08:26:22;5.30;;;4.90;;
14348;SDS011;7258;50.376;8.742;2023-05-23T08:28:25;5.00;;;4.50;;
14348;SDS011;7258;50.376;8.742;2023-05-23T08:30:28;4.90;;;4.53;;
14348;SDS011;7258;50.376;8.742;2023-05-23T08:32:33;4.50;;;4.20;;
14348;SDS011;7258;50.376;8.742;2023-05-23T08:34:36;4.40;;;4.00;;
14348;SDS011;7258;50.376;8.742;2023-05-23T08:36:39;4.18;;;3.80;;
14348;SDS011;7258;50.376;8.742;2023-05-23T08:38:44;4.22;;;3.85;;
14348;SDS011;7258;50.376;8.742;2023-05-23T08:40:48;3.30;;;3.05;;
14348;SDS011;7258;50.376;8.742;2023-05-23T08:42:53;3.30;;;3.10;;
14348;SDS011;7258;50.376;8.742;2023-05-23T08:44:56;3.10;;;2.80;;
14348;SDS011;7258;50.376;8.742;2023-05-23T08:46:59;3.17;;;2.90;;
14348;SDS011;7258;50.376;8.742;2023-05-23T08:49:06;3.20;;;2.90;;
14348;SDS011;7258;50.376;8.742;2023-05-23T08:51:09;3.70;;;3.40;;
14348;SDS011;7258;50.376;8.742;2023-05-23T08:53:15;3.58;;;3.08;;
14348;SDS011;7258;50.376;8.742;2023-05-23T08:55:21;3.60;;;3.30;;
14348;SDS011;7258;50.376;8.742;2023-05-23T08:57:26;4.20;;;3.90;;
14348;SDS011;7258;50.376;8.742;2023-05-23T08:59:30;3.40;;;3.03;;
14348;SDS011;7258;50.376;8.742;2023-05-23T09:01:34;4.90;;;3.40;;
14348;SDS011;7258;50.376;8.742;2023-05-23T09:03:40;3.33;;;3.03;;
14348;SDS011;7258;50.376;8.742;2023-05-23T09:05:44;3.30;;;3.10;;
14348;SDS011;7258;50.376;8.742;2023-05-23T09:07:48;3.50;;;3.20;;
14348;SDS011;7258;50.376;8.742;2023-05-23T09:09:51;4.05;;;3.65;;
14348;SDS011;7258;50.376;8.742;2023-05-23T09:11:59;5.50;;;5.03;;
14348;SDS011;7258;50.376;8.742;2023-05-23T09:14:03;4.30;;;4.00;;
14348;SDS011;7258;50.376;8.742;2023-05-23T09:16:18;4.13;;;3.40;;
14348;SDS011;7258;50.376;8.742;2023-05-23T09:18:24;4.65;;;4.25;;
14348;SDS011;7258;50.376;8.742;2023-05-23T09:20:29;4.43;;;4.03;;
14348;SDS011;7258;50.376;8.742;2023-05-23T09:22:33;4.88;;;4.38;;
14348;SDS011;7258;50.376;8.742;2023-05-23T09:24:42;3.90;;;3.60;;
14348;SDS011;7258;50.376;8.742;2023-05-23T09:26:45;3.67;;;3.38;;
14348;SDS011;7258;50.376;8.742;2023-05-23T09:28:55;3.30;;;3.10;;
14348;SDS011;7258;50.376;8.742;2023-05-23T09:31:01;3.70;;;3.40;;
14348;SDS011;7258;50.376;8.742;2023-05-23T09:33:33;3.70;;;3.40;;
14348;SDS011;7258;50.376;8.742;2023-05-23T09:35:44;3.55;;;3.25;;
14348;SDS011;7258;50.376;8.742;2023-05-23T09:37:50;3.75;;;3.38;;
14348;SDS011;7258;50.376;8.742;2023-05-23T09:39:57;3.55;;;3.22;;
14348;SDS011;7258;50.376;8.742;2023-05-23T09:42:18;3.78;;;3.47;;
14348;SDS011;7258;50.376;8.742;2023-05-23T09:44:24;3.90;;;3.60;;
14348;SDS011;7258;50.376;8.742;2023-05-23T09:46:33;4.10;;;3.72;;
14348;SDS011;7258;50.376;8.742;2023-05-23T09:48:37;4.07;;;3.70;;
14348;SDS011;7258;50.376;8.742;2023-05-23T09:50:40;4.40;;;4.00;;
14348;SDS011;7258;50.376;8.742;2023-05-23T09:52:52;4.10;;;3.70;;
14348;SDS011;7258;50.376;8.742;2023-05-23T09:54:55;4.28;;;3.88;;
14348;SDS011;7258;50.376;8.742;2023-05-23T09:57:23;4.25;;;3.70;;
14348;SDS011;7258;50.376;8.742;2023-05-23T09:59:29;4.20;;;3.80;;
14348;SDS011;7258;50.376;8.742;2023-05-23T10:01:33;3.83;;;3.63;;
14348;SDS011;7258;50.376;8.742;2023-05-23T10:03:39;4.00;;;3.60;;
14348;SDS011;7258;50.376;8.742;2023-05-23T10:05:48;3.72;;;3.38;;
14348;SDS011;7258;50.376;8.742;2023-05-23T10:07:52;3.95;;;3.17;;
14348;SDS011;7258;50.376;8.742;2023-05-23T10:10:02;3.50;;;3.17;;
14348;SDS011;7258;50.376;8.742;2023-05-23T10:14:46;4.07;;;3.40;;
14348;SDS011;7258;50.376;8.742;2023-05-23T10:17:00;3.30;;;3.03;;
14348;SDS011;7258;50.376;8.742;2023-05-23T10:19:12;2.47;;;2.20;;
14348;SDS011;7258;50.376;8.742;2023-05-23T10:21:27;3.63;;;2.80;;
14348;SDS011;7258;50.376;8.742;2023-05-23T10:23:36;2.63;;;2.42;;
14348;SDS011;7258;50.376;8.742;2023-05-23T10:25:41;2.80;;;2.60;;
14348;SDS011;7258;50.376;8.742;2023-05-23T10:27:48;2.95;;;2.75;;
14348;SDS011;7258;50.376;8.742;2023-05-23T10:30:03;3.45;;;3.15;;
14348;SDS011;7258;50.376;8.742;2023-05-23T10:32:10;3.15;;;2.90;;
14348;SDS011;7258;50.376;8.742;2023-05-23T10:34:23;3.55;;;3.05;;
14348;SDS011;7258;50.376;8.742;2023-05-23T10:36:36;2.95;;;2.55;;
14348;SDS011;7258;50.376;8.742;2023-05-23T10:38:54;2.95;;;2.72;;
14348;SDS011;7258;50.376;8.742;2023-05-23T10:41:05;3.92;;;3.00;;
14348;SDS011;7258;50.376;8.742;2023-05-23T10:43:17;3.85;;;3.45;;
14348;SDS011;7258;50.376;8.742;2023-05-23T10:45:31;3.72;;;3.42;;
14348;SDS011;7258;50.376;8.742;2023-05-23T10:47:43;4.35;;;3.95;;
14348;SDS011;7258;50.376;8.742;2023-05-23T10:49:53;3.83;;;3.40;;
14348;SDS011;7258;50.376;8.742;2023-05-23T10:52:07;4.95;;;3.22;;
14348;SDS011;7258;50.376;8.742;2023-05-23T10:54:11;5.05;;;3.08;;
14348;SDS011;7258;50.376;8.742;2023-05-23T10:56:18;3.10;;;2.90;;
14348;SDS011;7258;50.376;8.742;2023-05-23T10:58:24;3.30;;;2.78;;
14348;SDS011;7258;50.376;8.742;2023-05-23T11:00:32;3.00;;;2.72;;
14348;SDS011;7258;50.376;8.742;2023-05-23T11:02:35;2.47;;;2.28;;
14348;SDS011;7258;50.376;8.742;2023-05-23T11:04:40;3.55;;;2.70;;
14348;SDS011;7258;50.376;8.742;2023-05-23T11:06:44;2.78;;;2.50;;
14348;SDS011;7258;50.376;8.742;2023-05-23T11:08:51;6.00;;;3.58;;
14348;SDS011;7258;50.376;8.742;2023-05-23T11:11:07;5.82;;;2.45;;
14348;SDS011;7258;50.376;8.742;2023-05-23T11:13:11;2.75;;;2.55;;
14348;SDS011;7258;50.376;8.742;2023-05-23T11:15:19;2.50;;;2.22;;
14348;SDS011;7258;50.376;8.742;2023-05-23T11:17:30;2.50;;;2.30;;
14348;SDS011;7258;50.376;8.742;2023-05-23T11:19:35;2.20;;;2.10;;
14348;SDS011;7258;50.376;8.742;2023-05-23T11:21:38;3.58;;;1.90;;
14348;SDS011;7258;50.376;8.742;2023-05-23T11:23:42;3.08;;;1.67;;
14348;SDS011;7258;50.376;8.742;2023-05-23T11:25:47;2.03;;;1.80;;
14348;SDS011;7258;50.376;8.742;2023-05-23T11:27:52;3.67;;;1.75;;
14348;SDS011;7258;50.376;8.742;2023-05-23T11:29:57;1.40;;;1.30;;
14348;SDS011;7258;50.376;8.742;2023-05-23T11:32:07;1.90;;;1.75;;
14348;SDS011;7258;50.376;8.742;2023-05-23T11:34:19;1.80;;;1.70;;
14348;SDS011;7258;50.376;8.742;2023-05-23T11:36:22;1.60;;;1.50;;
14348;SDS011;7258;50.376;8.742;2023-05-23T11:38:25;1.60;;;1.50;;
14348;SDS011;7258;50.376;8.742;2023-05-23T11:40:29;1.67;;;1.58;;
14348;SDS011;7258;50.376;8.742;2023-05-23T11:42:33;2.30;;;1.40;;
14348;SDS011;7258;50.376;8.742;2023-05-23T11:44:42;2.75;;;1.42;;
14348;SDS011;7258;50.376;8.742;2023-05-23T11:46:57;1.30;;;1.20;;
14348;SDS011;7258;50.376;8.742;2023-05-23T11:49:01;1.42;;;1.33;;
14348;SDS011;7258;50.376;8.742;2023-05-23T11:51:15;1.48;;;1.38;;
14348;SDS011;7258;50.376;8.742;2023-05-23T11:53:20;1.50;;;1.40;;
14348;SDS011;7258;50.376;8.742;2023-05-23T11:55:26;1.42;;;1.40;;
14348;SDS011;7258;50.376;8.742;2023-05-23T11:57:29;1.42;;;1.33;;
14348;SDS011;7258;50.376;8.742;2023-05-23T11:59:32;1.25;;;1.20;;
14348;SDS011;7258;50.376;8.742;2023-05-23T12:01:35;1.55;;;1.40;;
14348;SDS011;7258;50.376;8.742;2023-05-23T12:03:48;1.98;;;1.52;;
14348;SDS011;7258;50.376;8.742;2023-05-23T12:05:53;1.98;;;1.63;;
14348;SDS011;7258;50.376;8.742;2023-05-23T12:07:58;3.03;;;1.48;;
14348;SDS011;7258;50.376;8.742;2023-05-23T12:10:02;1.60;;;1.50;;
14348;SDS011;7258;50.376;8.742;2023-05-23T12:12:05;1.48;;;1.30;;
14348;SDS011;7258;50.376;8.742;2023-05-23T12:14:12;1.50;;;1.40;;
14348;SDS011;7258;50.376;8.742;2023-05-23T12:16:19;1.90;;;1.10;;
14348;SDS011;7258;50.376;8.742;2023-05-23T12:18:24;1.60;;;1.50;;
14348;SDS011;7258;50.376;8.742;2023-05-23T12:20:39;1.60;;;1.50;;
14348;SDS011;7258;50.376;8.742;2023-05-23T12:22:45;1.67;;;1.58;;
14348;SDS011;7258;50.376;8.742;2023-05-23T12:24:50;1.50;;;1.35;;
14348;SDS011;7258;50.376;8.742;2023-05-23T12:26:59;1.42;;;1.38;;
14348;SDS011;7258;50.376;8.742;2023-05-23T12:29:03;2.67;;;1.60;;
14348;SDS011;7258;50.376;8.742;2023-05-23T12:31:07;1.60;;;1.50;;
14348;SDS011;7258;50.376;8.742;2023-05-23T12:33:12;1.60;;;1.50;;
14348;SDS011;7258;50.376;8.742;2023-05-23T12:35:16;2.17;;;1.90;;
14348;SDS011;7258;50.376;8.742;2023-05-23T12:37:19;1.83;;;1.73;;
14348;SDS011;7258;50.376;8.742;2023-05-23T12:39:25;2.55;;;1.58;;